createdAt,value
2018-12-16T12:48:48.427Z,27.75
2018-12-16T12:50:23.369Z,15.15
2018-12-16T12:51:58.395Z,17.12
2018-12-16T12:53:33.349Z,16.40
2018-12-16T12:55:08.607Z,16.12
2018-12-16T12:56:43.602Z,17.10
2018-12-16T12:58:18.766Z,17.02
2018-12-16T12:59:53.795Z,16.50
2018-12-16T13:01:29.004Z,17.07
2018-12-16T13:03:04.950Z,18.25
2018-12-16T13:04:40.200Z,18.07
2018-12-16T13:06:15.267Z,18.77
2018-12-16T13:07:50.435Z,17.90
2018-12-16T13:09:25.731Z,18.37
2018-12-16T13:11:00.885Z,19.20
2018-12-16T13:12:35.959Z,18.37
2018-12-16T13:14:11.074Z,18.90
2018-12-16T13:15:46.237Z,17.62
2018-12-16T13:17:21.491Z,18.00
2018-12-16T13:18:56.520Z,18.25
2018-12-16T13:20:31.979Z,17.80
2018-12-16T13:22:08.072Z,17.15
2018-12-16T13:23:43.217Z,17.67
2018-12-16T13:25:35.762Z,17.20
2018-12-16T13:27:10.980Z,16.48
2018-12-16T13:28:46.167Z,17.82
2018-12-16T13:30:21.142Z,17.73
2018-12-16T13:31:56.112Z,16.77
2018-12-16T13:33:31.197Z,17.90
2018-12-16T13:35:06.488Z,17.87
2018-12-16T13:36:41.501Z,17.35
2018-12-16T13:38:17.139Z,18.40
2018-12-16T13:39:52.132Z,16.60
2018-12-16T13:41:27.120Z,18.15
2018-12-16T13:43:02.070Z,19.45
2018-12-16T13:44:37.056Z,17.05
2018-12-16T13:46:14.919Z,21.42
2018-12-16T13:47:49.905Z,18.55
2018-12-16T13:49:24.905Z,18.50
2018-12-16T13:50:59.932Z,17.55
2018-12-16T13:52:34.985Z,17.57
2018-12-16T13:54:10.056Z,18.35
2018-12-16T13:55:45.012Z,18.05
2018-12-16T13:57:20.043Z,19.87
2018-12-16T13:58:55.028Z,20.40
2018-12-16T14:00:30.000Z,17.25
2018-12-16T14:02:04.964Z,18.00
2018-12-16T14:03:39.980Z,16.95
2018-12-16T14:05:14.953Z,17.75
2018-12-16T14:06:49.932Z,19.62
2018-12-16T14:08:24.923Z,16.85
2018-12-16T14:09:59.996Z,18.00
2018-12-16T14:11:34.990Z,19.12
2018-12-16T14:13:09.963Z,20.20
2018-12-16T14:14:45.231Z,19.98
2018-12-16T14:16:20.458Z,19.52
2018-12-16T14:17:55.408Z,19.82
2018-12-16T14:19:30.392Z,19.77
2018-12-16T14:21:05.340Z,21.68
2018-12-16T14:22:40.371Z,20.62
2018-12-16T14:24:15.268Z,19.57
2018-12-16T14:25:50.321Z,19.65
2018-12-16T14:27:25.259Z,20.25
2018-12-16T14:29:00.284Z,19.57
2018-12-16T14:30:35.229Z,21.70
2018-12-16T14:32:10.193Z,19.32
2018-12-16T14:33:45.131Z,20.40
2018-12-16T14:35:20.392Z,19.65
2018-12-16T14:36:55.371Z,20.32
2018-12-16T14:38:30.529Z,19.17
2018-12-16T14:40:06.833Z,19.62
2018-12-16T14:41:41.865Z,20.32
2018-12-16T14:43:16.801Z,20.90
2018-12-16T14:44:51.765Z,20.40
2018-12-16T14:46:26.757Z,20.72
2018-12-16T14:48:01.779Z,19.80
2018-12-16T14:49:36.741Z,19.90
2018-12-16T14:51:11.704Z,20.43
2018-12-16T14:52:46.688Z,19.55
2018-12-16T14:54:21.732Z,21.70
2018-12-16T14:55:56.686Z,19.87
2018-12-16T14:57:31.667Z,19.67
2018-12-16T14:59:06.631Z,21.42
2018-12-16T15:00:41.624Z,21.40
2018-12-16T15:02:16.557Z,20.70
2018-12-16T15:03:51.501Z,21.35
2018-12-16T15:05:26.565Z,20.97
2018-12-16T15:07:01.606Z,20.52
2018-12-16T15:08:36.712Z,18.70
2018-12-16T15:10:12.667Z,19.35
2018-12-16T15:11:47.607Z,21.10
2018-12-16T15:13:22.636Z,20.12
2018-12-16T15:14:57.840Z,21.17
2018-12-16T15:16:32.915Z,21.33
2018-12-16T15:18:07.908Z,22.27
2018-12-16T15:19:42.932Z,19.98
2018-12-16T15:21:17.836Z,20.25
2018-12-16T15:22:52.755Z,21.23
2018-12-16T15:24:27.701Z,20.30
2018-12-16T15:26:02.709Z,20.88
2018-12-16T15:27:37.669Z,20.43
2018-12-16T15:29:12.639Z,21.60
2018-12-16T15:30:47.600Z,21.17
2018-12-16T15:32:22.628Z,21.85
2018-12-16T15:33:57.616Z,22.65
2018-12-16T15:35:32.583Z,21.45
2018-12-16T15:37:07.544Z,21.97
2018-12-16T15:38:42.571Z,22.02
2018-12-16T15:40:17.488Z,22.98
2018-12-16T15:41:52.488Z,21.15
2018-12-16T15:43:27.476Z,21.73
2018-12-16T15:45:02.392Z,23.32
2018-12-16T15:46:37.331Z,20.60
2018-12-16T15:48:12.282Z,21.77
2018-12-16T15:49:47.537Z,22.80
2018-12-16T15:51:22.464Z,22.20
2018-12-16T15:52:57.399Z,22.85
2018-12-16T15:54:32.357Z,21.33
2018-12-16T15:56:09.445Z,23.10
2018-12-16T15:57:44.497Z,21.97
2018-12-16T15:59:19.691Z,21.25
2018-12-16T16:00:54.655Z,22.25
2018-12-16T16:02:29.689Z,22.05
2018-12-16T16:04:04.691Z,22.10
2018-12-16T16:05:39.697Z,20.97
2018-12-16T16:07:14.638Z,23.10
2018-12-16T16:08:49.653Z,19.95
2018-12-16T16:10:24.621Z,22.13
2018-12-16T16:11:59.604Z,21.48
2018-12-16T16:13:34.559Z,20.82
2018-12-16T16:15:10.135Z,20.97
2018-12-16T16:16:45.063Z,22.80
2018-12-16T16:18:20.147Z,20.37
2018-12-16T16:19:55.128Z,24.05
2018-12-16T16:21:30.186Z,20.48
2018-12-16T16:23:06.792Z,20.48
2018-12-16T16:24:42.096Z,21.52
2018-12-16T16:26:17.064Z,21.45
2018-12-16T16:27:52.065Z,20.68
2018-12-16T16:29:28.971Z,21.75
2018-12-16T16:31:06.498Z,22.35
2018-12-16T16:32:41.555Z,20.90
2018-12-16T16:34:16.585Z,21.30
2018-12-16T16:35:51.555Z,20.85
2018-12-16T16:37:26.583Z,20.62
2018-12-16T16:39:01.564Z,20.17
2018-12-16T16:40:36.835Z,21.30
2018-12-16T16:42:11.787Z,20.60
2018-12-16T16:43:46.804Z,21.02
2018-12-16T16:45:21.785Z,22.05
2018-12-16T16:46:56.854Z,20.65
2018-12-16T16:48:31.791Z,19.98
2018-12-16T16:50:07.088Z,20.17
2018-12-16T16:51:42.054Z,19.82
2018-12-16T16:53:17.041Z,20.75
2018-12-16T16:54:52.065Z,19.67
2018-12-16T16:56:27.077Z,19.02
2018-12-16T16:58:02.048Z,19.60
2018-12-16T16:59:37.053Z,20.60
2018-12-16T17:01:12.033Z,20.23
2018-12-16T17:02:46.976Z,19.50
2018-12-16T17:04:21.963Z,20.30
2018-12-16T17:05:57.033Z,19.45
2018-12-16T17:07:32.001Z,20.77
2018-12-16T17:09:09.084Z,20.23
2018-12-16T17:10:44.039Z,20.75
2018-12-16T17:12:19.099Z,22.60
2018-12-16T17:13:55.121Z,21.02
2018-12-16T17:15:30.079Z,20.77
2018-12-16T17:17:05.348Z,21.05
2018-12-16T17:18:40.494Z,22.55
2018-12-16T17:20:15.445Z,21.85
2018-12-16T17:21:50.615Z,21.37
2018-12-16T17:23:25.589Z,20.23
2018-12-16T17:25:00.642Z,20.17
2018-12-16T17:26:35.610Z,21.00
2018-12-16T17:28:10.628Z,20.25
2018-12-16T17:29:45.573Z,19.62
2018-12-16T17:31:20.605Z,20.85
2018-12-16T17:32:55.584Z,20.12
2018-12-16T17:34:30.567Z,20.68
2018-12-16T17:36:05.550Z,20.08
2018-12-16T17:37:40.636Z,19.85
2018-12-16T17:39:15.615Z,20.43
2018-12-16T17:40:50.592Z,19.17
2018-12-16T17:42:25.797Z,19.35
2018-12-16T17:44:00.850Z,19.17
2018-12-16T17:45:35.826Z,18.92
2018-12-16T17:47:10.889Z,19.37
2018-12-16T17:48:45.994Z,20.60
2018-12-16T17:50:21.023Z,19.17
2018-12-16T17:51:56.064Z,20.32
2018-12-16T17:53:31.060Z,18.50
2018-12-16T17:55:08.079Z,19.07
2018-12-16T17:56:43.944Z,19.05
2018-12-16T17:58:18.896Z,20.43
2018-12-16T17:59:53.851Z,20.23
2018-12-16T18:01:28.857Z,19.57
2018-12-16T18:03:03.965Z,19.37
2018-12-16T18:04:45.485Z,18.55
2018-12-16T18:06:20.516Z,19.40
2018-12-16T18:07:55.491Z,20.72
2018-12-16T18:09:30.504Z,20.75
2018-12-16T18:11:05.520Z,20.00
2018-12-16T18:12:40.502Z,20.45
2018-12-16T18:14:15.481Z,21.17
2018-12-16T18:15:50.480Z,20.25
2018-12-16T18:17:25.400Z,19.57
2018-12-16T18:19:00.340Z,19.90
2018-12-16T18:20:35.299Z,20.55
2018-12-16T18:22:13.973Z,20.55
2018-12-16T18:23:47.546Z,20.55
2018-12-16T18:25:22.502Z,21.50
2018-12-16T18:26:57.464Z,21.37
2018-12-16T18:28:32.491Z,20.30
2018-12-16T18:30:09.996Z,20.50
2018-12-16T18:31:44.921Z,21.42
2018-12-16T18:33:20.384Z,22.67
2018-12-16T18:34:55.500Z,21.35
2018-12-16T18:36:30.431Z,22.32
2018-12-16T18:38:05.423Z,22.75
2018-12-16T18:39:40.487Z,23.83
2018-12-16T18:41:16.404Z,22.67
2018-12-16T18:42:51.341Z,23.40
2018-12-16T18:44:26.394Z,22.50
2018-12-16T18:46:01.449Z,24.63
2018-12-16T18:47:36.497Z,25.60
2018-12-16T18:49:11.756Z,24.52
2018-12-16T18:50:46.719Z,24.37
2018-12-16T18:52:21.688Z,24.50
2018-12-16T18:53:56.757Z,24.92
2018-12-16T18:55:31.721Z,25.85
2018-12-16T18:57:07.339Z,24.80
2018-12-16T18:58:42.604Z,25.65
2018-12-16T19:00:17.651Z,24.60
2018-12-16T19:01:52.618Z,26.20
2018-12-16T19:03:27.743Z,24.55
2018-12-16T19:05:02.736Z,25.32
2018-12-16T19:06:37.752Z,25.25
2018-12-16T19:08:12.743Z,25.00
2018-12-16T19:09:47.763Z,24.35
2018-12-16T19:11:22.738Z,24.75
2018-12-16T19:12:57.865Z,24.98
2018-12-16T19:14:33.282Z,25.37
2018-12-16T19:16:08.235Z,24.18
2018-12-16T19:17:43.164Z,29.35
2018-12-16T19:19:18.515Z,30.23
2018-12-16T19:20:53.510Z,28.05
2018-12-16T19:22:28.499Z,27.35
2018-12-16T19:24:03.434Z,26.25
2018-12-16T19:25:38.475Z,26.00
2018-12-16T19:27:13.455Z,26.27
2018-12-16T19:28:49.345Z,26.00
2018-12-16T19:30:24.353Z,24.85
2018-12-16T19:31:59.863Z,24.55
2018-12-16T19:33:34.803Z,25.32
2018-12-16T19:35:10.582Z,26.20
2018-12-16T19:36:45.499Z,24.85
2018-12-16T19:38:20.507Z,27.80
2018-12-16T19:39:55.915Z,26.87
2018-12-16T19:41:31.119Z,24.37
2018-12-16T19:43:06.285Z,25.55
2018-12-16T19:44:41.429Z,25.02
2018-12-16T19:46:16.409Z,23.87
2018-12-16T19:47:52.082Z,24.30
2018-12-16T19:49:27.150Z,23.52
2018-12-16T19:51:02.124Z,23.42
2018-12-16T19:52:37.081Z,25.35
2018-12-16T19:54:12.172Z,24.45
2018-12-16T19:55:47.222Z,23.45
2018-12-16T19:57:22.181Z,24.90
2018-12-16T19:58:57.566Z,24.27
2018-12-16T20:00:34.980Z,25.62
2018-12-16T20:02:10.027Z,24.35
2018-12-16T20:03:50.240Z,23.55
2018-12-16T20:05:25.339Z,24.45
2018-12-16T20:07:00.320Z,24.55
2018-12-16T20:08:35.296Z,24.63
2018-12-16T20:10:10.273Z,24.98
2018-12-16T20:11:45.351Z,25.32
2018-12-16T20:13:20.348Z,24.67
2018-12-16T20:14:55.428Z,25.37
2018-12-16T20:16:30.371Z,25.90
2018-12-16T20:18:05.381Z,27.37
2018-12-16T20:19:40.927Z,25.23
2018-12-16T20:21:15.923Z,24.30
2018-12-16T20:22:50.983Z,25.50
2018-12-16T20:24:26.310Z,26.10
2018-12-16T20:26:01.498Z,25.17
2018-12-16T20:27:36.618Z,24.67
2018-12-16T20:29:11.576Z,26.42
2018-12-16T20:30:46.622Z,26.42
2018-12-16T20:32:22.057Z,23.47
2018-12-16T20:33:57.027Z,25.05
2018-12-16T20:35:32.838Z,26.12
2018-12-16T20:37:07.898Z,24.63
2018-12-16T20:38:43.249Z,25.65
2018-12-16T20:40:18.528Z,26.00
2018-12-16T20:41:53.734Z,25.68
2018-12-16T20:43:28.752Z,25.60
2018-12-16T20:45:04.449Z,26.00
2018-12-16T20:46:39.423Z,25.82
2018-12-16T20:48:14.628Z,24.60
2018-12-16T20:49:49.581Z,24.63
2018-12-16T20:51:24.874Z,24.75
2018-12-16T20:52:59.806Z,25.15
2018-12-16T20:54:35.249Z,25.95
2018-12-16T20:56:10.214Z,25.88
2018-12-16T20:57:45.332Z,25.50
2018-12-16T20:59:20.401Z,25.05
2018-12-16T21:00:55.471Z,25.30
2018-12-16T21:02:30.549Z,25.43
2018-12-16T21:04:05.644Z,25.57
2018-12-16T21:05:40.939Z,25.75
2018-12-16T21:07:16.074Z,26.48
2018-12-16T21:08:51.363Z,26.15
2018-12-16T21:10:26.518Z,26.33
2018-12-16T21:12:04.445Z,25.92
2018-12-16T21:13:44.601Z,25.17
2018-12-16T21:15:54.154Z,25.80
2018-12-16T21:17:34.224Z,25.40
2018-12-16T21:19:09.431Z,26.82
2018-12-16T21:20:44.411Z,24.23
2018-12-16T21:22:19.481Z,26.02
2018-12-16T21:23:54.547Z,26.30
2018-12-16T21:25:29.546Z,25.17
2018-12-16T21:27:05.126Z,26.62
2018-12-16T21:28:40.125Z,25.43
2018-12-16T21:30:15.207Z,28.20
2018-12-16T21:31:50.200Z,25.40
2018-12-16T21:33:25.372Z,24.60
2018-12-16T21:35:00.333Z,26.73
2018-12-16T21:36:35.339Z,26.70
2018-12-16T21:38:10.460Z,24.92
2018-12-16T21:39:45.522Z,24.82
2018-12-16T21:41:22.895Z,25.90
2018-12-16T21:42:57.879Z,25.92
2018-12-16T21:44:32.847Z,25.35
2018-12-16T21:46:08.107Z,26.75
2018-12-16T21:47:43.136Z,27.07
2018-12-16T21:49:18.193Z,26.17
2018-12-16T21:50:56.003Z,25.10
2018-12-16T21:52:31.059Z,25.90
2018-12-16T21:54:06.015Z,25.82
2018-12-16T21:55:42.609Z,24.75
2018-12-16T21:57:18.529Z,24.57
2018-12-16T21:58:53.647Z,24.75
2018-12-16T22:00:28.620Z,28.15
2018-12-16T22:02:03.673Z,25.02
2018-12-16T22:03:38.646Z,24.07
2018-12-16T22:05:14.813Z,24.77
2018-12-16T22:06:49.752Z,26.00
2018-12-16T22:08:24.781Z,24.72
2018-12-16T22:09:59.728Z,24.60
2018-12-16T22:11:34.696Z,25.43
2018-12-16T22:13:09.656Z,27.30
2018-12-16T22:14:44.628Z,26.48
2018-12-16T22:16:19.605Z,26.12
2018-12-16T22:17:54.610Z,26.57
2018-12-16T22:19:29.564Z,27.30
2018-12-16T22:21:04.588Z,26.50
2018-12-16T22:22:39.746Z,25.50
2018-12-16T22:24:14.686Z,26.07
2018-12-16T22:25:49.692Z,25.95
2018-12-16T22:27:24.692Z,24.55
2018-12-16T22:28:59.666Z,24.63
2018-12-16T22:30:34.577Z,24.37
2018-12-16T22:32:09.529Z,25.12
2018-12-16T22:33:44.565Z,25.77
2018-12-16T22:35:19.554Z,26.90
2018-12-16T22:36:54.475Z,25.32
2018-12-16T22:38:29.487Z,25.62
2018-12-16T22:40:04.964Z,26.85
2018-12-16T22:41:40.114Z,26.35
2018-12-16T22:43:15.033Z,26.42
2018-12-16T22:44:49.960Z,27.75
2018-12-16T22:46:31.828Z,26.05
2018-12-16T22:48:06.799Z,26.42
2018-12-16T22:49:41.735Z,26.55
2018-12-16T22:51:16.704Z,26.73
2018-12-16T22:52:51.744Z,26.33
2018-12-16T22:54:26.756Z,26.37
2018-12-16T22:56:01.683Z,26.68
2018-12-16T22:57:36.652Z,24.95
2018-12-16T22:59:11.651Z,26.70
2018-12-16T23:00:52.521Z,25.02
2018-12-16T23:02:27.419Z,26.48
2018-12-16T23:04:02.372Z,25.95
2018-12-16T23:05:37.364Z,26.35
2018-12-16T23:07:12.340Z,26.30
2018-12-16T23:08:47.335Z,25.72
2018-12-16T23:10:22.311Z,26.62
2018-12-16T23:11:57.377Z,26.77
2018-12-16T23:13:32.399Z,26.97
2018-12-16T23:15:08.995Z,26.87
2018-12-16T23:16:44.013Z,27.73
2018-12-16T23:18:18.963Z,26.85
2018-12-16T23:19:59.020Z,26.97
2018-12-16T23:21:33.936Z,26.55
2018-12-16T23:23:08.855Z,26.35
2018-12-16T23:24:44.033Z,27.95
2018-12-16T23:26:19.072Z,25.92
2018-12-16T23:27:54.572Z,26.97
2018-12-16T23:29:29.512Z,26.75
2018-12-16T23:31:04.464Z,26.62
2018-12-16T23:32:39.433Z,26.17
2018-12-16T23:34:14.396Z,25.50
2018-12-16T23:35:49.324Z,26.30
2018-12-16T23:37:24.291Z,27.22
2018-12-16T23:38:59.337Z,27.30
2018-12-16T23:40:34.345Z,27.42
2018-12-16T23:42:09.296Z,25.75
2018-12-16T23:43:44.308Z,27.20
2018-12-16T23:45:19.270Z,28.02
2018-12-16T23:46:54.245Z,27.07
2018-12-16T23:48:29.224Z,26.50
2018-12-16T23:50:04.756Z,26.00
2018-12-16T23:51:39.943Z,28.92
2018-12-16T23:53:14.953Z,27.27
2018-12-16T23:54:52.125Z,28.55
2018-12-16T23:56:27.093Z,27.80
2018-12-16T23:58:02.108Z,28.47
2018-12-16T23:59:37.529Z,27.22
